This is the latest recevied weather packets stored in our database for station/object WX7FGZ-3. If no packets are shown the sender has not sent any weather packets the latest 10 day(s).
| Time | Temp. | Humidity | Pressure | Rain* | Wind** | Luminosity | Snow |
|---|---|---|---|---|---|---|---|
| 1777888440 | 7.22° C | 60% | 1006.3 hPa | 0 mm | - | - | - |
| 1777888139 | 7.22° C | 58% | 1006.5 hPa | 0 mm | - | - | - |
| 1777887372 | 7.22° C | 58% | 1005.9 hPa | 0 mm | - | - | - |
| 1777887364 | 7.78° C | 59% | 1006.1 hPa | 0 mm | - | - | - |
| 1777886938 | 7.22° C | 57% | 1006.5 hPa | 0 mm | - | - | - |
| 1777886338 | 6.67° C | 60% | 1006.5 hPa | 0 mm | - | - | - |
| 1777884836 | 7.22° C | 58% | 1005.9 hPa | 0 mm | - | - | - |
| 1777884536 | 7.78° C | 59% | 1006.1 hPa | 0 mm | - | - | - |
| 1777883991 | 7.78° C | 59% | 1006.2 hPa | 0 mm | - | - | - |
| 1777883936 | 7.78° C | 59% | 1006.1 hPa | 0 mm | - | - | - |
| 1777883635 | 7.78° C | 59% | 1006.2 hPa | 0 mm | - | - | - |
| 1777883335 | 8.33° C | 59% | 1006.5 hPa | 0 mm | - | - | - |
| 1777883035 | 8.33° C | 57% | 1006.3 hPa | 0 mm | - | - | - |
| 1777882735 | 8.33° C | 55% | 1006.3 hPa | 0 mm | - | - | - |
| 1777882134 | 8.89° C | 56% | 1006.5 hPa | 0 mm | - | - | - |
| 1777881533 | 9.44° C | 54% | 1006.7 hPa | 0 mm | - | - | - |
| 1777879431 | 10.56° C | 50% | 1007.2 hPa | 0 mm | - | - | - |
| 1777879131 | 10.56° C | 50% | 1007.2 hPa | 0 mm | - | - | - |
| 1777878830 | 10.56° C | 49% | 1007.1 hPa | 0 mm | - | - | - |
| 1777878230 | 11.11° C | 49% | 1007.3 hPa | 0 mm | - | - | - |
| 1777877930 | 11.11° C | 49% | 1007.5 hPa | 0 mm | - | - | - |
| 1777877029 | 10.56° C | 51% | 1008 hPa | 0 mm | - | - | - |
| 1777876209 | 9.44° C | 54% | 1008 hPa | 0 mm | - | - | - |
| 1777876128 | 9.44° C | 54% | 1008 hPa | 0 mm | - | - | - |
| 1777875918 | 8.89° C | 58% | 1007.9 hPa | 0 mm | - | - | - |
* Rain latest hour (hover to see other rain measurements)
** Current wind speed in m/s (hover to see current wind gust speed)